sensor_id;sensor_type;location;lat;lon;timestamp;P1;durP1;ratioP1;P2;durP2;ratioP2
75864;SDS011;64510;46.704;38.274;2023-03-01T00:01:07;15.68;;;8.35;;
75864;SDS011;64510;46.704;38.274;2023-03-01T00:03:37;25.63;;;12.30;;
75864;SDS011;64510;46.704;38.274;2023-03-01T00:06:03;33.35;;;14.75;;
75864;SDS011;64510;46.704;38.274;2023-03-01T00:08:30;26.30;;;14.00;;
75864;SDS011;64510;46.704;38.274;2023-03-01T00:11:00;25.70;;;11.68;;
75864;SDS011;64510;46.704;38.274;2023-03-01T00:13:30;19.63;;;11.50;;
75864;SDS011;64510;46.704;38.274;2023-03-01T00:15:56;18.60;;;9.63;;
75864;SDS011;64510;46.704;38.274;2023-03-01T00:18:22;19.45;;;9.75;;
75864;SDS011;64510;46.704;38.274;2023-03-01T00:20:49;26.90;;;13.07;;
75864;SDS011;64510;46.704;38.274;2023-03-01T00:23:16;15.93;;;9.10;;
75864;SDS011;64510;46.704;38.274;2023-03-01T00:25:42;24.85;;;11.15;;
75864;SDS011;64510;46.704;38.274;2023-03-01T00:28:08;20.63;;;10.85;;
75864;SDS011;64510;46.704;38.274;2023-03-01T00:30:34;26.27;;;12.23;;
75864;SDS011;64510;46.704;38.274;2023-03-01T00:33:00;20.58;;;10.13;;
75864;SDS011;64510;46.704;38.274;2023-03-01T00:35:26;20.27;;;11.30;;
75864;SDS011;64510;46.704;38.274;2023-03-01T00:37:52;18.30;;;10.30;;
75864;SDS011;64510;46.704;38.274;2023-03-01T00:40:33;24.67;;;12.10;;
75864;SDS011;64510;46.704;38.274;2023-03-01T00:43:00;20.77;;;11.60;;
75864;SDS011;64510;46.704;38.274;2023-03-01T00:45:26;17.30;;;9.18;;
75864;SDS011;64510;46.704;38.274;2023-03-01T00:47:53;23.70;;;9.25;;
75864;SDS011;64510;46.704;38.274;2023-03-01T00:50:19;30.85;;;12.05;;
75864;SDS011;64510;46.704;38.274;2023-03-01T00:52:45;22.17;;;12.88;;
75864;SDS011;64510;46.704;38.274;2023-03-01T00:55:12;18.77;;;10.32;;
75864;SDS011;64510;46.704;38.274;2023-03-01T00:57:39;23.38;;;12.10;;
75864;SDS011;64510;46.704;38.274;2023-03-01T01:00:05;22.38;;;11.60;;
75864;SDS011;64510;46.704;38.274;2023-03-01T01:02:32;15.60;;;8.52;;
75864;SDS011;64510;46.704;38.274;2023-03-01T01:04:59;16.00;;;9.38;;
75864;SDS011;64510;46.704;38.274;2023-03-01T01:07:25;21.80;;;10.07;;
75864;SDS011;64510;46.704;38.274;2023-03-01T01:09:51;17.58;;;8.90;;
75864;SDS011;64510;46.704;38.274;2023-03-01T01:12:17;22.60;;;11.20;;
75864;SDS011;64510;46.704;38.274;2023-03-01T01:14:43;22.80;;;9.93;;
75864;SDS011;64510;46.704;38.274;2023-03-01T01:17:09;17.33;;;8.02;;
75864;SDS011;64510;46.704;38.274;2023-03-01T01:19:35;17.45;;;8.88;;
75864;SDS011;64510;46.704;38.274;2023-03-01T01:22:02;22.15;;;10.23;;
75864;SDS011;64510;46.704;38.274;2023-03-01T01:24:28;28.05;;;10.77;;
75864;SDS011;64510;46.704;38.274;2023-03-01T01:26:55;20.73;;;10.60;;
75864;SDS011;64510;46.704;38.274;2023-03-01T01:29:21;20.70;;;11.57;;
75864;SDS011;64510;46.704;38.274;2023-03-01T01:31:47;20.92;;;11.48;;
75864;SDS011;64510;46.704;38.274;2023-03-01T01:34:15;19.63;;;9.07;;
75864;SDS011;64510;46.704;38.274;2023-03-01T01:36:43;20.65;;;12.15;;
75864;SDS011;64510;46.704;38.274;2023-03-01T01:39:09;24.45;;;12.77;;
75864;SDS011;64510;46.704;38.274;2023-03-01T01:41:39;22.45;;;11.70;;
75864;SDS011;64510;46.704;38.274;2023-03-01T01:44:20;23.08;;;12.32;;
75864;SDS011;64510;46.704;38.274;2023-03-01T01:46:58;24.48;;;13.07;;
75864;SDS011;64510;46.704;38.274;2023-03-01T01:49:31;20.33;;;11.82;;
75864;SDS011;64510;46.704;38.274;2023-03-01T01:52:00;25.98;;;12.35;;
75864;SDS011;64510;46.704;38.274;2023-03-01T01:57:26;24.33;;;10.82;;
75864;SDS011;64510;46.704;38.274;2023-03-01T02:00:07;24.08;;;14.27;;
75864;SDS011;64510;46.704;38.274;2023-03-01T02:02:44;21.25;;;13.35;;
75864;SDS011;64510;46.704;38.274;2023-03-01T02:07:53;26.85;;;14.35;;
75864;SDS011;64510;46.704;38.274;2023-03-01T02:10:21;23.20;;;13.10;;
75864;SDS011;64510;46.704;38.274;2023-03-01T02:12:48;23.55;;;11.27;;
75864;SDS011;64510;46.704;38.274;2023-03-01T02:15:15;18.00;;;11.82;;
75864;SDS011;64510;46.704;38.274;2023-03-01T02:17:41;25.10;;;11.43;;
75864;SDS011;64510;46.704;38.274;2023-03-01T02:22:51;26.67;;;14.43;;
75864;SDS011;64510;46.704;38.274;2023-03-01T02:25:24;23.20;;;12.60;;
75864;SDS011;64510;46.704;38.274;2023-03-01T02:30:44;24.63;;;14.73;;
75864;SDS011;64510;46.704;38.274;2023-03-01T02:33:31;25.38;;;15.02;;
75864;SDS011;64510;46.704;38.274;2023-03-01T02:36:02;25.55;;;13.90;;
75864;SDS011;64510;46.704;38.274;2023-03-01T02:38:30;23.75;;;14.13;;
75864;SDS011;64510;46.704;38.274;2023-03-01T02:40:57;25.50;;;15.82;;
75864;SDS011;64510;46.704;38.274;2023-03-01T02:43:25;22.02;;;11.20;;
75864;SDS011;64510;46.704;38.274;2023-03-01T02:45:57;32.92;;;10.27;;
75864;SDS011;64510;46.704;38.274;2023-03-01T02:48:38;31.67;;;14.00;;
75864;SDS011;64510;46.704;38.274;2023-03-01T02:51:37;24.70;;;13.18;;
75864;SDS011;64510;46.704;38.274;2023-03-01T02:54:30;26.55;;;14.82;;
75864;SDS011;64510;46.704;38.274;2023-03-01T02:57:02;21.42;;;10.63;;
75864;SDS011;64510;46.704;38.274;2023-03-01T02:59:31;19.85;;;10.15;;
75864;SDS011;64510;46.704;38.274;2023-03-01T03:02:06;21.85;;;12.85;;
75864;SDS011;64510;46.704;38.274;2023-03-01T03:04:45;32.17;;;14.23;;
75864;SDS011;64510;46.704;38.274;2023-03-01T03:07:12;27.80;;;14.23;;
75864;SDS011;64510;46.704;38.274;2023-03-01T03:09:38;17.75;;;9.70;;
75864;SDS011;64510;46.704;38.274;2023-03-01T03:12:04;26.25;;;13.18;;
75864;SDS011;64510;46.704;38.274;2023-03-01T03:14:30;18.77;;;11.90;;
75864;SDS011;64510;46.704;38.274;2023-03-01T03:17:00;31.57;;;16.47;;
75864;SDS011;64510;46.704;38.274;2023-03-01T03:19:26;32.25;;;14.65;;
75864;SDS011;64510;46.704;38.274;2023-03-01T03:21:52;29.40;;;11.50;;
75864;SDS011;64510;46.704;38.274;2023-03-01T03:24:18;24.08;;;14.57;;
75864;SDS011;64510;46.704;38.274;2023-03-01T03:26:43;16.75;;;10.82;;
75864;SDS011;64510;46.704;38.274;2023-03-01T03:29:09;26.77;;;13.98;;
75864;SDS011;64510;46.704;38.274;2023-03-01T03:31:35;31.10;;;16.05;;
75864;SDS011;64510;46.704;38.274;2023-03-01T03:34:01;28.35;;;13.35;;
75864;SDS011;64510;46.704;38.274;2023-03-01T03:36:27;20.60;;;9.95;;
75864;SDS011;64510;46.704;38.274;2023-03-01T03:38:53;25.67;;;13.95;;
75864;SDS011;64510;46.704;38.274;2023-03-01T03:41:18;26.20;;;12.23;;
75864;SDS011;64510;46.704;38.274;2023-03-01T03:43:45;28.60;;;13.68;;
75864;SDS011;64510;46.704;38.274;2023-03-01T03:46:11;20.45;;;11.07;;
75864;SDS011;64510;46.704;38.274;2023-03-01T03:48:38;25.55;;;13.80;;
75864;SDS011;64510;46.704;38.274;2023-03-01T03:51:06;19.67;;;11.43;;
75864;SDS011;64510;46.704;38.274;2023-03-01T03:53:34;23.92;;;13.00;;
75864;SDS011;64510;46.704;38.274;2023-03-01T03:56:00;26.27;;;13.10;;
75864;SDS011;64510;46.704;38.274;2023-03-01T03:58:26;39.88;;;14.93;;
75864;SDS011;64510;46.704;38.274;2023-03-01T04:00:54;21.80;;;10.05;;
75864;SDS011;64510;46.704;38.274;2023-03-01T04:03:21;21.65;;;9.93;;
75864;SDS011;64510;46.704;38.274;2023-03-01T04:05:50;24.38;;;12.05;;
75864;SDS011;64510;46.704;38.274;2023-03-01T04:08:20;12.43;;;6.85;;
75864;SDS011;64510;46.704;38.274;2023-03-01T04:10:49;23.80;;;13.40;;
75864;SDS011;64510;46.704;38.274;2023-03-01T04:13:17;15.63;;;10.48;;
75864;SDS011;64510;46.704;38.274;2023-03-01T04:15:45;20.10;;;10.68;;
75864;SDS011;64510;46.704;38.274;2023-03-01T04:18:13;25.02;;;13.20;;
75864;SDS011;64510;46.704;38.274;2023-03-01T04:20:40;18.77;;;10.02;;
75864;SDS011;64510;46.704;38.274;2023-03-01T04:23:08;22.52;;;11.13;;
75864;SDS011;64510;46.704;38.274;2023-03-01T04:25:49;23.42;;;11.65;;
75864;SDS011;64510;46.704;38.274;2023-03-01T04:28:20;11.32;;;7.03;;
75864;SDS011;64510;46.704;38.274;2023-03-01T04:30:47;18.85;;;8.32;;
75864;SDS011;64510;46.704;38.274;2023-03-01T04:33:13;17.52;;;8.95;;
75864;SDS011;64510;46.704;38.274;2023-03-01T04:35:39;17.02;;;8.20;;
75864;SDS011;64510;46.704;38.274;2023-03-01T04:38:05;17.85;;;8.90;;
75864;SDS011;64510;46.704;38.274;2023-03-01T04:40:31;22.70;;;8.57;;
75864;SDS011;64510;46.704;38.274;2023-03-01T04:42:57;18.10;;;8.38;;
75864;SDS011;64510;46.704;38.274;2023-03-01T04:45:23;14.95;;;7.63;;
75864;SDS011;64510;46.704;38.274;2023-03-01T04:47:49;10.38;;;6.22;;
75864;SDS011;64510;46.704;38.274;2023-03-01T04:50:17;19.45;;;9.55;;
75864;SDS011;64510;46.704;38.274;2023-03-01T04:52:49;15.43;;;7.43;;
75864;SDS011;64510;46.704;38.274;2023-03-01T04:55:15;19.13;;;9.10;;
75864;SDS011;64510;46.704;38.274;2023-03-01T04:57:41;13.85;;;8.95;;
75864;SDS011;64510;46.704;38.274;2023-03-01T05:00:07;18.75;;;8.95;;
75864;SDS011;64510;46.704;38.274;2023-03-01T05:05:32;15.70;;;9.00;;
75864;SDS011;64510;46.704;38.274;2023-03-01T05:08:00;17.85;;;8.52;;
75864;SDS011;64510;46.704;38.274;2023-03-01T05:10:28;17.60;;;8.75;;
75864;SDS011;64510;46.704;38.274;2023-03-01T05:12:55;11.95;;;6.97;;
75864;SDS011;64510;46.704;38.274;2023-03-01T05:15:25;12.00;;;9.48;;
75864;SDS011;64510;46.704;38.274;2023-03-01T05:17:53;15.88;;;7.40;;
75864;SDS011;64510;46.704;38.274;2023-03-01T05:20:21;15.00;;;7.93;;
75864;SDS011;64510;46.704;38.274;2023-03-01T05:22:50;10.63;;;6.53;;
75864;SDS011;64510;46.704;38.274;2023-03-01T05:25:17;13.20;;;6.18;;
75864;SDS011;64510;46.704;38.274;2023-03-01T05:27:43;25.58;;;9.88;;
75864;SDS011;64510;46.704;38.274;2023-03-01T05:30:09;14.75;;;9.27;;
75864;SDS011;64510;46.704;38.274;2023-03-01T05:32:42;8.95;;;5.53;;
75864;SDS011;64510;46.704;38.274;2023-03-01T05:35:16;12.10;;;6.63;;
75864;SDS011;64510;46.704;38.274;2023-03-01T05:37:43;16.38;;;8.95;;
75864;SDS011;64510;46.704;38.274;2023-03-01T05:40:14;11.15;;;6.65;;
75864;SDS011;64510;46.704;38.274;2023-03-01T05:42:42;16.25;;;7.45;;
75864;SDS011;64510;46.704;38.274;2023-03-01T05:45:13;11.25;;;6.60;;
75864;SDS011;64510;46.704;38.274;2023-03-01T05:47:40;12.25;;;6.30;;
75864;SDS011;64510;46.704;38.274;2023-03-01T05:50:13;16.42;;;8.95;;
75864;SDS011;64510;46.704;38.274;2023-03-01T05:52:51;13.68;;;7.18;;
75864;SDS011;64510;46.704;38.274;2023-03-01T05:55:25;14.63;;;8.27;;
75864;SDS011;64510;46.704;38.274;2023-03-01T05:57:51;14.70;;;7.57;;
75864;SDS011;64510;46.704;38.274;2023-03-01T06:00:18;14.65;;;8.25;;
75864;SDS011;64510;46.704;38.274;2023-03-01T06:02:47;12.35;;;6.93;;
75864;SDS011;64510;46.704;38.274;2023-03-01T06:05:13;19.80;;;10.35;;
75864;SDS011;64510;46.704;38.274;2023-03-01T06:07:40;14.88;;;9.30;;
75864;SDS011;64510;46.704;38.274;2023-03-01T06:10:07;15.32;;;9.52;;
75864;SDS011;64510;46.704;38.274;2023-03-01T06:12:36;15.35;;;9.60;;
75864;SDS011;64510;46.704;38.274;2023-03-01T06:15:03;10.40;;;7.03;;
75864;SDS011;64510;46.704;38.274;2023-03-01T06:17:31;17.08;;;8.80;;
75864;SDS011;64510;46.704;38.274;2023-03-01T06:20:00;11.32;;;6.80;;
75864;SDS011;64510;46.704;38.274;2023-03-01T06:22:26;19.65;;;9.80;;
75864;SDS011;64510;46.704;38.274;2023-03-01T06:24:52;15.95;;;9.90;;
75864;SDS011;64510;46.704;38.274;2023-03-01T06:27:18;17.08;;;8.60;;
75864;SDS011;64510;46.704;38.274;2023-03-01T06:29:44;20.52;;;10.52;;
75864;SDS011;64510;46.704;38.274;2023-03-01T06:32:10;16.38;;;7.38;;
75864;SDS011;64510;46.704;38.274;2023-03-01T06:34:36;17.50;;;8.38;;
75864;SDS011;64510;46.704;38.274;2023-03-01T06:37:02;20.52;;;10.70;;
75864;SDS011;64510;46.704;38.274;2023-03-01T06:39:30;19.08;;;9.90;;
75864;SDS011;64510;46.704;38.274;2023-03-01T06:41:57;25.65;;;9.38;;
75864;SDS011;64510;46.704;38.274;2023-03-01T06:44:23;20.67;;;9.75;;
75864;SDS011;64510;46.704;38.274;2023-03-01T06:46:49;12.07;;;7.95;;
75864;SDS011;64510;46.704;38.274;2023-03-01T06:49:15;19.02;;;8.15;;
75864;SDS011;64510;46.704;38.274;2023-03-01T06:51:43;23.60;;;12.27;;
75864;SDS011;64510;46.704;38.274;2023-03-01T06:54:09;18.60;;;10.50;;
75864;SDS011;64510;46.704;38.274;2023-03-01T06:56:35;23.90;;;11.10;;
75864;SDS011;64510;46.704;38.274;2023-03-01T06:59:01;15.18;;;8.15;;
75864;SDS011;64510;46.704;38.274;2023-03-01T07:01:28;20.77;;;10.35;;
75864;SDS011;64510;46.704;38.274;2023-03-01T07:03:55;24.58;;;11.35;;
75864;SDS011;64510;46.704;38.274;2023-03-01T07:06:21;19.65;;;10.13;;
75864;SDS011;64510;46.704;38.274;2023-03-01T07:08:47;16.80;;;9.77;;
75864;SDS011;64510;46.704;38.274;2023-03-01T07:11:13;22.42;;;10.50;;
75864;SDS011;64510;46.704;38.274;2023-03-01T07:13:40;19.08;;;10.15;;
75864;SDS011;64510;46.704;38.274;2023-03-01T07:16:06;16.98;;;9.70;;
75864;SDS011;64510;46.704;38.274;2023-03-01T07:18:32;18.65;;;10.05;;
75864;SDS011;64510;46.704;38.274;2023-03-01T07:20:58;18.60;;;9.63;;
75864;SDS011;64510;46.704;38.274;2023-03-01T07:23:29;16.95;;;9.30;;
75864;SDS011;64510;46.704;38.274;2023-03-01T07:25:55;14.35;;;9.63;;
75864;SDS011;64510;46.704;38.274;2023-03-01T07:28:24;16.55;;;9.45;;
75864;SDS011;64510;46.704;38.274;2023-03-01T07:30:50;16.15;;;9.23;;
75864;SDS011;64510;46.704;38.274;2023-03-01T07:33:16;15.40;;;9.77;;
75864;SDS011;64510;46.704;38.274;2023-03-01T07:35:42;14.73;;;7.45;;
75864;SDS011;64510;46.704;38.274;2023-03-01T07:38:08;18.35;;;8.25;;
75864;SDS011;64510;46.704;38.274;2023-03-01T07:40:34;17.33;;;8.45;;
75864;SDS011;64510;46.704;38.274;2023-03-01T07:43:00;16.58;;;9.68;;
75864;SDS011;64510;46.704;38.274;2023-03-01T07:45:27;17.60;;;9.48;;
75864;SDS011;64510;46.704;38.274;2023-03-01T07:47:53;20.15;;;9.48;;
75864;SDS011;64510;46.704;38.274;2023-03-01T07:50:20;18.25;;;10.57;;
75864;SDS011;64510;46.704;38.274;2023-03-01T07:52:47;16.83;;;8.80;;
75864;SDS011;64510;46.704;38.274;2023-03-01T07:55:14;15.00;;;8.82;;
75864;SDS011;64510;46.704;38.274;2023-03-01T07:57:41;16.05;;;8.27;;
75864;SDS011;64510;46.704;38.274;2023-03-01T08:00:09;15.90;;;9.00;;
75864;SDS011;64510;46.704;38.274;2023-03-01T08:02:39;17.48;;;9.23;;
75864;SDS011;64510;46.704;38.274;2023-03-01T08:05:07;16.65;;;9.60;;
75864;SDS011;64510;46.704;38.274;2023-03-01T08:07:35;14.93;;;8.73;;
75864;SDS011;64510;46.704;38.274;2023-03-01T08:10:01;21.85;;;10.57;;
75864;SDS011;64510;46.704;38.274;2023-03-01T08:12:27;17.70;;;11.80;;
75864;SDS011;64510;46.704;38.274;2023-03-01T08:14:53;18.95;;;9.20;;
75864;SDS011;64510;46.704;38.274;2023-03-01T08:17:20;27.60;;;11.57;;
75864;SDS011;64510;46.704;38.274;2023-03-01T08:19:45;21.08;;;11.20;;
75864;SDS011;64510;46.704;38.274;2023-03-01T08:22:11;17.85;;;8.48;;
75864;SDS011;64510;46.704;38.274;2023-03-01T08:24:37;19.95;;;9.40;;
75864;SDS011;64510;46.704;38.274;2023-03-01T08:27:03;18.92;;;10.75;;
75864;SDS011;64510;46.704;38.274;2023-03-01T08:29:33;19.23;;;8.15;;
75864;SDS011;64510;46.704;38.274;2023-03-01T08:31:59;17.85;;;9.30;;
75864;SDS011;64510;46.704;38.274;2023-03-01T08:34:26;18.17;;;9.13;;
75864;SDS011;64510;46.704;38.274;2023-03-01T08:36:52;24.45;;;10.80;;
75864;SDS011;64510;46.704;38.274;2023-03-01T08:39:18;24.63;;;12.27;;
75864;SDS011;64510;46.704;38.274;2023-03-01T08:41:45;12.50;;;7.28;;
75864;SDS011;64510;46.704;38.274;2023-03-01T08:44:12;18.70;;;10.30;;
75864;SDS011;64510;46.704;38.274;2023-03-01T08:46:41;20.00;;;10.73;;
75864;SDS011;64510;46.704;38.274;2023-03-01T08:49:09;18.23;;;11.40;;
75864;SDS011;64510;46.704;38.274;2023-03-01T08:51:40;17.42;;;8.63;;
75864;SDS011;64510;46.704;38.274;2023-03-01T08:54:09;16.50;;;7.85;;
75864;SDS011;64510;46.704;38.274;2023-03-01T08:56:37;19.60;;;10.68;;
75864;SDS011;64510;46.704;38.274;2023-03-01T08:59:03;17.73;;;10.82;;
75864;SDS011;64510;46.704;38.274;2023-03-01T09:01:29;14.13;;;8.75;;
75864;SDS011;64510;46.704;38.274;2023-03-01T09:03:55;12.25;;;6.47;;
75864;SDS011;64510;46.704;38.274;2023-03-01T09:06:21;19.13;;;9.35;;
75864;SDS011;64510;46.704;38.274;2023-03-01T09:08:47;16.20;;;6.85;;
75864;SDS011;64510;46.704;38.274;2023-03-01T09:11:16;15.35;;;9.48;;
75864;SDS011;64510;46.704;38.274;2023-03-01T09:13:45;14.73;;;8.98;;
75864;SDS011;64510;46.704;38.274;2023-03-01T09:16:12;12.25;;;8.57;;
75864;SDS011;64510;46.704;38.274;2023-03-01T09:18:39;12.25;;;9.10;;
75864;SDS011;64510;46.704;38.274;2023-03-01T09:21:06;15.25;;;8.50;;
75864;SDS011;64510;46.704;38.274;2023-03-01T09:23:38;18.83;;;8.15;;
75864;SDS011;64510;46.704;38.274;2023-03-01T09:26:06;17.13;;;9.73;;
75864;SDS011;64510;46.704;38.274;2023-03-01T09:28:34;18.92;;;9.40;;
75864;SDS011;64510;46.704;38.274;2023-03-01T09:31:01;15.15;;;7.70;;
75864;SDS011;64510;46.704;38.274;2023-03-01T09:33:28;12.10;;;7.90;;
75864;SDS011;64510;46.704;38.274;2023-03-01T09:35:56;15.82;;;8.35;;
75864;SDS011;64510;46.704;38.274;2023-03-01T09:38:26;24.63;;;10.38;;
75864;SDS011;64510;46.704;38.274;2023-03-01T09:40:52;17.08;;;7.80;;
75864;SDS011;64510;46.704;38.274;2023-03-01T09:43:21;16.40;;;7.97;;
75864;SDS011;64510;46.704;38.274;2023-03-01T09:45:49;20.60;;;8.52;;
75864;SDS011;64510;46.704;38.274;2023-03-01T09:48:18;13.77;;;7.57;;
75864;SDS011;64510;46.704;38.274;2023-03-01T09:50:48;23.45;;;11.70;;
75864;SDS011;64510;46.704;38.274;2023-03-01T09:53:16;17.15;;;10.73;;
75864;SDS011;64510;46.704;38.274;2023-03-01T10:01:05;23.85;;;11.65;;
75864;SDS011;64510;46.704;38.274;2023-03-01T10:03:44;13.73;;;8.55;;
75864;SDS011;64510;46.704;38.274;2023-03-01T10:06:27;19.25;;;9.05;;
75864;SDS011;64510;46.704;38.274;2023-03-01T10:09:12;10.88;;;6.25;;
75864;SDS011;64510;46.704;38.274;2023-03-01T10:11:42;12.30;;;7.50;;
75864;SDS011;64510;46.704;38.274;2023-03-01T10:17:03;14.05;;;6.43;;
75864;SDS011;64510;46.704;38.274;2023-03-01T10:19:39;9.73;;;6.50;;
75864;SDS011;64510;46.704;38.274;2023-03-01T10:22:11;8.98;;;5.47;;
75864;SDS011;64510;46.704;38.274;2023-03-01T10:24:40;8.38;;;5.03;;
75864;SDS011;64510;46.704;38.274;2023-03-01T10:27:12;12.52;;;5.85;;
75864;SDS011;64510;46.704;38.274;2023-03-01T10:32:32;12.93;;;7.00;;
75864;SDS011;64510;46.704;38.274;2023-03-01T10:34:58;6.68;;;4.63;;
75864;SDS011;64510;46.704;38.274;2023-03-01T10:37:24;7.47;;;5.70;;
75864;SDS011;64510;46.704;38.274;2023-03-01T10:42:28;9.02;;;5.75;;
75864;SDS011;64510;46.704;38.274;2023-03-01T10:45:02;11.65;;;6.60;;
75864;SDS011;64510;46.704;38.274;2023-03-01T10:48:11;14.23;;;6.65;;
75864;SDS011;64510;46.704;38.274;2023-03-01T10:56:07;10.38;;;6.45;;
75864;SDS011;64510;46.704;38.274;2023-03-01T10:58:36;10.77;;;6.25;;
75864;SDS011;64510;46.704;38.274;2023-03-01T11:03:35;12.40;;;6.82;;
75864;SDS011;64510;46.704;38.274;2023-03-01T11:14:05;11.07;;;6.57;;
75864;SDS011;64510;46.704;38.274;2023-03-01T11:16:41;8.25;;;5.93;;
75864;SDS011;64510;46.704;38.274;2023-03-01T11:21:39;12.07;;;6.57;;
75864;SDS011;64510;46.704;38.274;2023-03-01T11:24:11;10.90;;;5.90;;
75864;SDS011;64510;46.704;38.274;2023-03-01T11:26:44;13.23;;;5.75;;
75864;SDS011;64510;46.704;38.274;2023-03-01T11:29:16;10.27;;;5.78;;
75864;SDS011;64510;46.704;38.274;2023-03-01T11:31:51;13.48;;;7.78;;
75864;SDS011;64510;46.704;38.274;2023-03-01T11:34:19;11.05;;;5.88;;
75864;SDS011;64510;46.704;38.274;2023-03-01T11:36:58;8.35;;;5.57;;
75864;SDS011;64510;46.704;38.274;2023-03-01T11:39:31;12.13;;;6.05;;
75864;SDS011;64510;46.704;38.274;2023-03-01T11:42:09;12.82;;;6.50;;
75864;SDS011;64510;46.704;38.274;2023-03-01T11:44:39;13.75;;;7.82;;
75864;SDS011;64510;46.704;38.274;2023-03-01T11:50:29;11.13;;;5.32;;
75864;SDS011;64510;46.704;38.274;2023-03-01T12:08:52;12.50;;;6.93;;
75864;SDS011;64510;46.704;38.274;2023-03-01T12:20:05;14.07;;;5.88;;
75864;SDS011;64510;46.704;38.274;2023-03-01T12:31:11;10.77;;;5.53;;
75864;SDS011;64510;46.704;38.274;2023-03-01T12:50:31;8.52;;;4.82;;
75864;SDS011;64510;46.704;38.274;2023-03-01T12:53:04;8.85;;;5.05;;
75864;SDS011;64510;46.704;38.274;2023-03-01T12:55:34;8.40;;;4.45;;
75864;SDS011;64510;46.704;38.274;2023-03-01T12:58:08;9.38;;;6.10;;
75864;SDS011;64510;46.704;38.274;2023-03-01T13:09:19;9.07;;;5.03;;
75864;SDS011;64510;46.704;38.274;2023-03-01T13:12:00;7.13;;;3.97;;
75864;SDS011;64510;46.704;38.274;2023-03-01T13:17:00;5.68;;;3.58;;
75864;SDS011;64510;46.704;38.274;2023-03-01T13:19:28;10.13;;;4.32;;
75864;SDS011;64510;46.704;38.274;2023-03-01T13:21:55;5.38;;;4.47;;
75864;SDS011;64510;46.704;38.274;2023-03-01T13:24:40;7.18;;;4.15;;
75864;SDS011;64510;46.704;38.274;2023-03-01T13:29:49;7.97;;;3.80;;
75864;SDS011;64510;46.704;38.274;2023-03-01T13:34:54;4.15;;;3.10;;
75864;SDS011;64510;46.704;38.274;2023-03-01T13:37:25;5.75;;;3.13;;
75864;SDS011;64510;46.704;38.274;2023-03-01T13:39:57;8.70;;;4.13;;
75864;SDS011;64510;46.704;38.274;2023-03-01T13:42:36;5.93;;;4.18;;
75864;SDS011;64510;46.704;38.274;2023-03-01T13:45:05;7.65;;;4.32;;
75864;SDS011;64510;46.704;38.274;2023-03-01T13:47:46;7.95;;;4.65;;
75864;SDS011;64510;46.704;38.274;2023-03-01T13:50:45;7.35;;;3.80;;
75864;SDS011;64510;46.704;38.274;2023-03-01T13:53:18;3.97;;;3.22;;
75864;SDS011;64510;46.704;38.274;2023-03-01T13:55:47;12.38;;;4.10;;
75864;SDS011;64510;46.704;38.274;2023-03-01T13:58:22;6.03;;;3.55;;
75864;SDS011;64510;46.704;38.274;2023-03-01T14:01:05;7.53;;;4.40;;
75864;SDS011;64510;46.704;38.274;2023-03-01T14:03:33;6.13;;;3.58;;
75864;SDS011;64510;46.704;38.274;2023-03-01T14:08:37;6.22;;;3.95;;
75864;SDS011;64510;46.704;38.274;2023-03-01T14:19:07;11.07;;;4.65;;
75864;SDS011;64510;46.704;38.274;2023-03-01T14:21:42;13.05;;;5.78;;
75864;SDS011;64510;46.704;38.274;2023-03-01T14:24:18;10.13;;;5.45;;
75864;SDS011;64510;46.704;38.274;2023-03-01T14:26:46;10.80;;;4.32;;
75864;SDS011;64510;46.704;38.274;2023-03-01T14:29:27;8.30;;;4.53;;
75864;SDS011;64510;46.704;38.274;2023-03-01T14:34:58;12.20;;;6.10;;
75864;SDS011;64510;46.704;38.274;2023-03-01T14:37:27;8.35;;;5.47;;
75864;SDS011;64510;46.704;38.274;2023-03-01T14:39:57;7.90;;;4.70;;
75864;SDS011;64510;46.704;38.274;2023-03-01T14:42:25;10.48;;;4.93;;
75864;SDS011;64510;46.704;38.274;2023-03-01T14:44:55;7.38;;;4.38;;
75864;SDS011;64510;46.704;38.274;2023-03-01T14:47:27;8.43;;;5.22;;
75864;SDS011;64510;46.704;38.274;2023-03-01T14:49:57;7.05;;;4.88;;
75864;SDS011;64510;46.704;38.274;2023-03-01T14:52:39;12.90;;;4.72;;
75864;SDS011;64510;46.704;38.274;2023-03-01T14:55:17;13.70;;;4.65;;
75864;SDS011;64510;46.704;38.274;2023-03-01T14:57:49;16.58;;;4.60;;
75864;SDS011;64510;46.704;38.274;2023-03-01T15:00:21;6.45;;;3.83;;
75864;SDS011;64510;46.704;38.274;2023-03-01T15:02:52;10.50;;;4.50;;
75864;SDS011;64510;46.704;38.274;2023-03-01T15:05:23;11.43;;;5.78;;
75864;SDS011;64510;46.704;38.274;2023-03-01T15:08:01;11.50;;;4.88;;
75864;SDS011;64510;46.704;38.274;2023-03-01T15:10:32;10.65;;;5.53;;
75864;SDS011;64510;46.704;38.274;2023-03-01T15:13:11;8.63;;;4.07;;
75864;SDS011;64510;46.704;38.274;2023-03-01T15:18:31;10.48;;;4.72;;
75864;SDS011;64510;46.704;38.274;2023-03-01T15:21:14;8.25;;;5.47;;
75864;SDS011;64510;46.704;38.274;2023-03-01T15:23:47;8.93;;;4.28;;
75864;SDS011;64510;46.704;38.274;2023-03-01T15:26:35;9.23;;;4.97;;
75864;SDS011;64510;46.704;38.274;2023-03-01T15:29:04;8.57;;;4.85;;
75864;SDS011;64510;46.704;38.274;2023-03-01T15:31:42;11.77;;;5.88;;
75864;SDS011;64510;46.704;38.274;2023-03-01T15:34:21;10.63;;;4.43;;
75864;SDS011;64510;46.704;38.274;2023-03-01T15:37:02;11.18;;;4.72;;
75864;SDS011;64510;46.704;38.274;2023-03-01T15:42:12;11.40;;;5.32;;
75864;SDS011;64510;46.704;38.274;2023-03-01T15:47:49;9.13;;;4.63;;
75864;SDS011;64510;46.704;38.274;2023-03-01T15:50:40;8.82;;;5.50;;
75864;SDS011;64510;46.704;38.274;2023-03-01T15:53:12;5.47;;;3.50;;
75864;SDS011;64510;46.704;38.274;2023-03-01T15:55:41;5.85;;;3.78;;
75864;SDS011;64510;46.704;38.274;2023-03-01T15:58:40;8.43;;;4.05;;
75864;SDS011;64510;46.704;38.274;2023-03-01T16:00:59;15.38;;;5.25;;
75864;SDS011;64510;46.704;38.274;2023-03-01T16:03:25;9.95;;;5.47;;
75864;SDS011;64510;46.704;38.274;2023-03-01T16:05:52;6.35;;;3.67;;
75864;SDS011;64510;46.704;38.274;2023-03-01T16:08:18;10.80;;;5.20;;
75864;SDS011;64510;46.704;38.274;2023-03-01T16:10:44;10.45;;;5.60;;
75864;SDS011;64510;46.704;38.274;2023-03-01T16:13:11;11.63;;;3.95;;
75864;SDS011;64510;46.704;38.274;2023-03-01T16:15:38;18.23;;;5.10;;
75864;SDS011;64510;46.704;38.274;2023-03-01T16:18:05;11.13;;;5.60;;
75864;SDS011;64510;46.704;38.274;2023-03-01T16:20:33;6.97;;;4.90;;
75864;SDS011;64510;46.704;38.274;2023-03-01T16:22:59;10.90;;;5.28;;
75864;SDS011;64510;46.704;38.274;2023-03-01T16:25:27;10.18;;;5.80;;
75864;SDS011;64510;46.704;38.274;2023-03-01T16:27:54;9.38;;;5.53;;
75864;SDS011;64510;46.704;38.274;2023-03-01T16:30:22;12.73;;;5.25;;
75864;SDS011;64510;46.704;38.274;2023-03-01T16:32:49;10.93;;;4.13;;
75864;SDS011;64510;46.704;38.274;2023-03-01T16:35:16;7.50;;;4.72;;
75864;SDS011;64510;46.704;38.274;2023-03-01T16:37:46;10.50;;;4.10;;
75864;SDS011;64510;46.704;38.274;2023-03-01T16:40:30;13.10;;;5.25;;
75864;SDS011;64510;46.704;38.274;2023-03-01T16:42:57;7.85;;;4.80;;
75864;SDS011;64510;46.704;38.274;2023-03-01T16:45:27;6.90;;;4.40;;
75864;SDS011;64510;46.704;38.274;2023-03-01T16:47:58;7.13;;;4.55;;
75864;SDS011;64510;46.704;38.274;2023-03-01T16:50:24;9.57;;;4.32;;